Time;durP1;ratioP1;P1;durP2;ratioP2;P2;SDS_P1;SDS_P2;PMS_P1;PMS_P2;Temp;Humidity;BMP_temperature;BMP_pressure;BME280_temperature;BME280_humidity;BME280_pressure;Samples;Min_cycle;Max_cycle;Signal;HPM_P1;HPM_P2
2023/10/29 00:01:24;;;;;;;;;;;;;;;10.35;98.98;99829.22;4193865;28;20019;-68
2023/10/29 00:03:26;;;;;;;;;;;;;;;10.34;98.94;99824.03;4192985;28;20098;-69
2023/10/29 00:05:28;;;;;;;;;;;;;;;10.33;98.63;99830.44;4193057;28;20032;-68
2023/10/29 00:07:29;;;;;;;;;;;;;;;10.30;98.68;99826.28;4194452;28;20027;-69
2023/10/29 00:09:31;;;;;;;;;;;;;;;10.28;98.39;99821.06;4193638;28;19998;-68
2023/10/29 00:11:33;;;;;;;;;;;;;;;10.27;98.34;99826.66;4194567;28;20095;-69
2023/10/29 00:13:35;;;;;;;;;;;;;;;10.27;98.50;99815.88;4194497;28;20035;-69
2023/10/29 00:15:39;;;;;;;;;;;;;;;10.25;98.09;99813.38;4194863;28;19967;-69
2023/10/29 00:17:41;;;;;;;;;;;;;;;10.25;98.10;99815.22;4194266;28;20015;-69
2023/10/29 00:19:43;;;;;;;;;;;;;;;10.24;98.18;99810.88;4195173;28;20023;-69
2023/10/29 00:21:44;;;;;;;;;;;;;;;10.20;97.92;99806.88;4194915;28;20019;-69
2023/10/29 00:23:45;;;;;;;;;;;;;;;10.17;97.75;99808.13;4194685;28;20367;-69
2023/10/29 00:25:48;;;;;;;;;;;;;;;10.18;97.86;99800.84;4194977;28;20019;-68
2023/10/29 00:27:49;;;;;;;;;;;;;;;10.16;97.83;99801.06;4195178;28;20361;-69
2023/10/29 00:29:52;;;;;;;;;;;;;;;10.15;98.01;99793.16;4195018;28;19929;-68
2023/10/29 00:31:55;;;;;;;;;;;;;;;10.13;97.99;99793.34;4194603;28;19959;-69
2023/10/29 00:33:57;;;;;;;;;;;;;;;10.13;98.30;99792.53;4193972;28;20027;-68
2023/10/29 00:36:00;;;;;;;;;;;;;;;10.12;98.12;99777.38;4194904;28;19928;-69
2023/10/29 00:38:02;;;;;;;;;;;;;;;10.10;98.16;99785.66;4193788;28;20064;-68
2023/10/29 00:40:05;;;;;;;;;;;;;;;10.08;98.19;99785.84;4193952;28;20031;-67
2023/10/29 00:42:07;;;;;;;;;;;;;;;10.07;98.43;99777.94;4194215;28;20019;-69
2023/10/29 00:44:09;;;;;;;;;;;;;;;10.07;98.42;99780.66;4192844;28;20027;-66
2023/10/29 00:46:12;;;;;;;;;;;;;;;10.07;98.72;99783.34;4211225;28;20023;-69
2023/10/29 00:48:14;;;;;;;;;;;;;;;10.07;98.65;99783.34;4193614;28;20438;-68
2023/10/29 00:50:16;;;;;;;;;;;;;;;10.06;98.39;99781.66;4194522;28;20011;-68
2023/10/29 00:52:18;;;;;;;;;;;;;;;10.05;98.54;99791.63;4194394;28;20055;-69
2023/10/29 00:54:20;;;;;;;;;;;;;;;10.05;98.29;99788.13;4193600;28;20115;-68
2023/10/29 00:56:22;;;;;;;;;;;;;;;10.04;98.44;99789.97;4193715;28;20030;-67
2023/10/29 00:58:23;;;;;;;;;;;;;;;10.06;98.28;99790.63;4193366;28;20026;-67
2023/10/29 01:00:25;;;;;;;;;;;;;;;10.04;98.23;99789.13;4193885;28;20019;-69
2023/10/29 01:02:27;;;;;;;;;;;;;;;10.02;98.21;99792.03;4193284;28;20007;-67
2023/10/29 01:04:29;;;;;;;;;;;;;;;10.01;98.35;99787.66;4194185;28;20027;-69
2023/10/29 01:06:31;;;;;;;;;;;;;;;10.00;98.23;99783.31;4194289;28;20439;-69
2023/10/29 01:08:33;;;;;;;;;;;;;;;9.99;98.08;99778.94;4194752;28;20027;-69
2023/10/29 01:10:35;;;;;;;;;;;;;;;9.99;97.86;99788.91;4194284;28;20023;-69
2023/10/29 01:12:38;;;;;;;;;;;;;;;9.98;98.01;99784.53;4194414;28;20023;-68
2023/10/29 01:14:41;;;;;;;;;;;;;;;9.97;97.88;99782.84;4192609;28;19925;-68
2023/10/29 01:16:43;;;;;;;;;;;;;;;9.95;97.91;99774.94;4194597;28;19955;-68
2023/10/29 01:18:45;;;;;;;;;;;;;;;9.97;97.95;99778.31;4193174;28;20015;-68
2023/10/29 01:20:48;;;;;;;;;;;;;;;9.98;98.22;99774.56;4208753;28;20366;-68
2023/10/29 01:22:51;;;;;;;;;;;;;;;9.98;98.16;99774.56;4193835;28;20036;-69
2023/10/29 01:24:53;;;;;;;;;;;;;;;9.98;98.00;99773.75;4193647;28;20023;-68
2023/10/29 01:26:55;;;;;;;;;;;;;;;9.98;97.98;99768.34;4193888;28;20023;-69
2023/10/29 01:28:57;;;;;;;;;;;;;;;9.98;97.97;99765.66;4194748;28;20019;-68
2023/10/29 01:31:00;;;;;;;;;;;;;;;9.99;98.03;99757.34;4192098;28;20016;-68
2023/10/29 01:33:02;;;;;;;;;;;;;;;9.99;97.98;99759.22;4193674;28;20015;-69
2023/10/29 01:35:04;;;;;;;;;;;;;;;9.99;97.78;99765.44;4193431;28;20023;-68
2023/10/29 01:37:07;;;;;;;;;;;;;;;9.99;97.97;99751.13;4193683;28;20470;-69
2023/10/29 01:39:08;;;;;;;;;;;;;;;9.99;97.78;99757.34;4194660;28;19988;-68
2023/10/29 01:41:10;;;;;;;;;;;;;;;9.99;97.70;99751.13;4192866;28;20027;-67
2023/10/29 01:43:13;;;;;;;;;;;;;;;9.98;97.87;99744.06;4193652;28;20059;-69
2023/10/29 01:45:16;;;;;;;;;;;;;;;9.98;97.70;99741.38;4193689;28;20015;-69
2023/10/29 01:47:19;;;;;;;;;;;;;;;9.97;98.19;99742.38;4193382;28;19928;-69
2023/10/29 01:49:20;;;;;;;;;;;;;;;9.97;98.29;99729.75;4193510;28;20011;-69
2023/10/29 01:51:22;;;;;;;;;;;;;;;9.97;97.85;99727.06;4193510;28;20189;-69
2023/10/29 01:53:27;;;;;;;;;;;;;;;9.98;98.05;99727.88;4192529;28;20024;-69
2023/10/29 01:55:29;;;;;;;;;;;;;;;9.99;98.14;99729.56;4192641;28;20031;-68
2023/10/29 01:57:32;;;;;;;;;;;;;;;9.97;97.96;99727.06;4193104;28;19928;-68
2023/10/29 01:59:35;;;;;;;;;;;;;;;9.97;98.23;99726.19;4192522;28;20023;-69
2023/10/29 02:01:37;;;;;;;;;;;;;;;9.99;98.05;99724.16;4192071;28;20358;-68
2023/10/29 02:03:39;;;;;;;;;;;;;;;9.98;98.49;99719.78;4192722;28;20027;-69
2023/10/29 02:05:42;;;;;;;;;;;;;;;9.99;98.54;99721.47;4192063;28;20023;-69
2023/10/29 02:07:45;;;;;;;;;;;;;;;10.00;98.65;99725.81;4192424;28;20031;-68
2023/10/29 02:09:48;;;;;;;;;;;;;;;9.99;98.46;99727.69;4193147;28;20331;-69
2023/10/29 02:11:50;;;;;;;;;;;;;;;10.00;98.59;99717.72;4192676;28;20019;-67
2023/10/29 02:13:52;;;;;;;;;;;;;;;9.99;98.48;99719.59;4192386;28;20031;-68
2023/10/29 02:15:54;;;;;;;;;;;;;;;9.99;98.83;99705.28;4191700;28;20007;-69
2023/10/29 02:17:56;;;;;;;;;;;;;;;9.99;98.82;99708.81;4192067;28;19931;-68
2023/10/29 02:19:57;;;;;;;;;;;;;;;9.99;98.92;99705.28;4192711;28;20070;-69
2023/10/29 02:22:01;;;;;;;;;;;;;;;10.01;98.65;99705.91;4192973;28;20518;-68
2023/10/29 02:24:03;;;;;;;;;;;;;;;10.00;98.94;99705.09;4193817;28;20015;-68
2023/10/29 02:26:05;;;;;;;;;;;;;;;10.02;98.96;99707.59;4193491;28;20038;-67
2023/10/29 02:28:08;;;;;;;;;;;;;;;10.01;99.16;99712.13;4193541;28;20095;-69
2023/10/29 02:30:11;;;;;;;;;;;;;;;10.02;99.09;99704.88;4190469;28;20019;-68
2023/10/29 02:32:13;;;;;;;;;;;;;;;10.03;99.34;99718.16;4191748;28;20051;-69
2023/10/29 02:34:15;;;;;;;;;;;;;;;10.04;99.29;99724.41;4192715;28;20015;-68
2023/10/29 02:36:17;;;;;;;;;;;;;;;10.03;99.00;99723.56;4188001;28;20023;-68
2023/10/29 02:38:20;;;;;;;;;;;;;;;10.05;99.04;99720.66;4199871;28;19932;-67
2023/10/29 02:40:22;;;;;;;;;;;;;;;10.03;99.20;99718.16;4193271;28;20584;-69
2023/10/29 02:42:24;;;;;;;;;;;;;;;10.04;99.22;99724.41;4193512;28;20020;-68
2023/10/29 02:44:26;;;;;;;;;;;;;;;10.04;99.20;99727.91;4192423;28;20019;-69
2023/10/29 02:46:30;;;;;;;;;;;;;;;10.04;99.32;99727.91;4192386;28;20434;-69
2023/10/29 02:48:32;;;;;;;;;;;;;;;10.05;99.49;99726.91;4193269;28;20023;-69
2023/10/29 02:50:36;;;;;;;;;;;;;;;10.05;99.43;99724.19;4193017;28;20027;-69
2023/10/29 02:52:39;;;;;;;;;;;;;;;10.07;99.60;99721.28;4192762;28;20466;-66
2023/10/29 02:54:42;;;;;;;;;;;;;;;10.07;99.67;99721.28;4193428;28;20014;-69
2023/10/29 02:56:44;;;;;;;;;;;;;;;10.07;99.56;99729.41;4193888;28;20015;-67
2023/10/29 02:58:46;;;;;;;;;;;;;;;10.08;99.50;99729.19;4193245;28;19962;-69
2023/10/29 03:00:48;;;;;;;;;;;;;;;10.08;99.47;99731.06;4190060;28;20007;-69
2023/10/29 03:02:50;;;;;;;;;;;;;;;10.08;99.30;99733.75;4190864;28;20034;-69
2023/10/29 03:04:53;;;;;;;;;;;;;;;10.08;99.57;99739.97;4192757;28;20047;-69
2023/10/29 03:06:55;;;;;;;;;;;;;;;10.09;99.36;99747.06;4192713;28;20027;-69
2023/10/29 03:08:56;;;;;;;;;;;;;;;10.09;99.26;99757.84;4192515;28;20028;-69
2023/10/29 03:11:00;;;;;;;;;;;;;;;10.09;99.67;99752.44;4193173;28;20032;-69
2023/10/29 03:13:02;;;;;;;;;;;;;;;10.08;99.53;99745.38;4193241;28;20051;-69
2023/10/29 03:15:04;;;;;;;;;;;;;;;10.07;99.37;99735.59;4193019;28;20023;-69
2023/10/29 03:17:08;;;;;;;;;;;;;;;10.09;99.57;99740.81;4191634;28;20023;-69
2023/10/29 03:19:11;;;;;;;;;;;;;;;10.08;99.52;99739.97;4192050;28;19998;-69
2023/10/29 03:21:15;;;;;;;;;;;;;;;10.08;99.97;99736.47;4192761;28;20560;-69
2023/10/29 03:23:17;;;;;;;;;;;;;;;10.09;100.00;99740.81;4192072;28;20027;-69
2023/10/29 03:25:19;;;;;;;;;;;;;;;10.10;100.00;99734.38;4209455;28;21235;-69
2023/10/29 03:27:23;;;;;;;;;;;;;;;10.10;100.00;99727.13;4193095;28;20434;-69
2023/10/29 03:29:25;;;;;;;;;;;;;;;10.10;100.00;99731.69;4191798;28;20368;-69
2023/10/29 03:31:26;;;;;;;;;;;;;;;10.11;100.00;99725.28;4191731;28;20103;-69
2023/10/29 03:33:28;;;;;;;;;;;;;;;10.13;100.00;99716.97;4192246;28;20038;-69
2023/10/29 03:35:30;;;;;;;;;;;;;;;10.13;100.00;99708.88;4189053;28;19964;-69
2023/10/29 03:37:32;;;;;;;;;;;;;;;10.14;100.00;99710.53;4189420;28;20011;-69
2023/10/29 03:39:34;;;;;;;;;;;;;;;10.14;100.00;99707.84;4195055;28;19928;-69
2023/10/29 03:41:36;;;;;;;;;;;;;;;10.15;100.00;99706.81;4195456;28;20445;-69
2023/10/29 03:43:39;;;;;;;;;;;;;;;10.15;100.00;99696.03;4193537;28;20071;-69
2023/10/29 03:45:41;;;;;;;;;;;;;;;10.16;100.00;99684.22;4192664;28;20602;-66
2023/10/29 03:47:43;;;;;;;;;;;;;;;10.16;100.00;99687.72;4195760;28;20505;-67
2023/10/29 03:49:45;;;;;;;;;;;;;;;10.17;100.00;99680.47;4195097;28;20019;-68
2023/10/29 03:51:47;;;;;;;;;;;;;;;10.16;100.00;99682.34;4195267;28;20071;-69
2023/10/29 03:53:50;;;;;;;;;;;;;;;10.17;100.00;99673.22;4193875;28;20016;-69
2023/10/29 03:55:53;;;;;;;;;;;;;;;10.19;100.00;99671.13;4196194;28;20359;-69
2023/10/29 03:57:55;;;;;;;;;;;;;;;10.18;100.00;99666.75;4195533;28;20019;-69
2023/10/29 03:59:57;;;;;;;;;;;;;;;10.18;100.00;99666.75;4194259;28;19928;-69
2023/10/29 04:02:00;;;;;;;;;;;;;;;10.20;100.00;99669.25;4192960;28;20023;-68
2023/10/29 04:04:02;;;;;;;;;;;;;;;10.21;100.00;99662.84;4195751;28;20027;-69
2023/10/29 04:06:08;;;;;;;;;;;;;;;10.20;100.00;99664.72;4194724;28;20015;-70
2023/10/29 04:08:10;;;;;;;;;;;;;;;10.21;100.00;99669.06;4191969;28;20424;-69
2023/10/29 04:10:12;;;;;;;;;;;;;;;10.21;100.00;99663.66;4194084;28;20012;-70
2023/10/29 04:12:13;;;;;;;;;;;;;;;10.21;100.00;99674.47;4193323;28;20055;-68
2023/10/29 04:14:15;;;;;;;;;;;;;;;10.22;100.00;99669.88;4194178;28;20008;-69
2023/10/29 04:16:19;;;;;;;;;;;;;;;10.23;100.00;99664.28;4194891;28;20015;-69
2023/10/29 04:18:24;;;;;;;;;;;;;;;10.23;100.00;99658.88;4195022;28;20031;-69
2023/10/29 04:20:27;;;;;;;;;;;;;;;10.23;100.00;99666.16;4194970;28;20402;-68
2023/10/29 04:22:29;;;;;;;;;;;;;;;10.23;100.00;99675.09;4194393;28;20011;-69
2023/10/29 04:24:31;;;;;;;;;;;;;;;10.24;100.00;99660.56;4194527;28;20027;-68
2023/10/29 04:26:35;;;;;;;;;;;;;;;10.25;100.00;99667.63;4195388;28;20023;-68
2023/10/29 04:28:37;;;;;;;;;;;;;;;10.25;100.00;99664.94;4194943;28;20015;-68
2023/10/29 04:30:39;;;;;;;;;;;;;;;10.25;100.00;99664.94;4193177;28;20039;-68
2023/10/29 04:32:42;;;;;;;;;;;;;;;10.26;100.00;99654.97;4193977;28;20015;-69
2023/10/29 04:34:44;;;;;;;;;;;;;;;10.27;100.00;99664.75;4194428;28;20010;-68
2023/10/29 04:36:51;;;;;;;;;;;;;;;10.28;100.00;99666.38;4195151;28;20530;-69
2023/10/29 04:38:53;;;;;;;;;;;;;;;10.28;100.00;99661.84;4193548;28;20031;-69
2023/10/29 04:40:55;;;;;;;;;;;;;;;10.28;100.00;99652.88;4193411;28;19924;-69
2023/10/29 04:42:57;;;;;;;;;;;;;;;10.28;100.00;99642.94;4193507;28;20047;-68
2023/10/29 04:44:59;;;;;;;;;;;;;;;10.31;100.00;99636.28;4194552;28;20377;-68
2023/10/29 04:47:03;;;;;;;;;;;;;;;10.32;100.00;99631.75;4192908;28;20024;-68
2023/10/29 04:49:07;;;;;;;;;;;;;;;10.31;100.00;99643.56;4194145;28;20019;-68
2023/10/29 04:51:09;;;;;;;;;;;;;;;10.31;100.00;99624.69;4194018;28;20434;-69
2023/10/29 04:53:11;;;;;;;;;;;;;;;10.31;100.00;99627.38;4194027;28;20103;-67
2023/10/29 04:55:12;;;;;;;;;;;;;;;10.32;100.00;99615.56;4194211;28;20023;-69
2023/10/29 04:57:14;;;;;;;;;;;;;;;10.32;100.00;99615.56;4194038;28;20411;-67
2023/10/29 04:59:16;;;;;;;;;;;;;;;10.33;100.00;99611.84;4194668;28;20011;-68
2023/10/29 05:01:18;;;;;;;;;;;;;;;10.33;100.00;99604.59;4192359;28;19932;-69
2023/10/29 05:03:23;;;;;;;;;;;;;;;10.33;100.00;99591.09;4193065;28;20221;-69
2023/10/29 05:05:27;;;;;;;;;;;;;;;10.34;100.00;99590.03;4192905;28;20019;-68
2023/10/29 05:07:29;;;;;;;;;;;;;;;10.35;100.00;99590.91;4190810;28;20033;-69
2023/10/29 05:09:31;;;;;;;;;;;;;;;10.35;100.00;99588.19;4193021;28;20086;-69
2023/10/29 05:11:33;;;;;;;;;;;;;;;10.35;100.00;99585.50;4193435;28;20367;-69
2023/10/29 05:13:34;;;;;;;;;;;;;;;10.35;100.00;99583.63;4192314;28;20028;-69
2023/10/29 05:15:36;;;;;;;;;;;;;;;10.36;100.00;99581.75;4194266;28;20019;-68
2023/10/29 05:17:38;;;;;;;;;;;;;;;10.36;100.00;99576.34;4193937;28;20016;-68
2023/10/29 05:19:40;;;;;;;;;;;;;;;10.36;100.00;99577.19;4194369;28;20015;-69
2023/10/29 05:21:43;;;;;;;;;;;;;;;10.37;100.00;99584.25;4193117;28;19932;-68
2023/10/29 05:23:45;;;;;;;;;;;;;;;10.39;100.00;99581.34;4194107;28;20472;-69
2023/10/29 05:25:46;;;;;;;;;;;;;;;10.39;100.00;99582.19;4194482;28;20027;-69
2023/10/29 05:27:52;;;;;;;;;;;;;;;10.39;100.00;99571.38;4195339;28;19928;-69
2023/10/29 05:29:54;;;;;;;;;;;;;;;10.41;100.00;99576.59;4192805;28;20589;-70
2023/10/29 05:31:55;;;;;;;;;;;;;;;10.42;100.00;99567.44;4191785;28;20023;-69
2023/10/29 05:33:57;;;;;;;;;;;;;;;10.44;100.00;99568.91;4193373;28;19935;-69
2023/10/29 05:35:59;;;;;;;;;;;;;;;10.45;100.00;99569.72;4193794;28;20012;-69
2023/10/29 05:38:02;;;;;;;;;;;;;;;10.44;100.00;99566.19;4193687;28;20015;-69
2023/10/29 05:40:07;;;;;;;;;;;;;;;10.44;100.00;99555.41;4194211;28;20042;-70
2023/10/29 05:42:10;;;;;;;;;;;;;;;10.44;100.00;99560.81;4194263;28;20005;-69
2023/10/29 05:44:13;;;;;;;;;;;;;;;10.45;100.00;99559.78;4193309;28;20329;-69
2023/10/29 05:46:16;;;;;;;;;;;;;;;10.49;100.00;99553.97;4193417;28;20493;-69
2023/10/29 05:48:18;;;;;;;;;;;;;;;10.48;100.00;99553.13;4193638;28;20007;-69
2023/10/29 05:50:20;;;;;;;;;;;;;;;10.50;100.00;99555.59;4193078;28;20502;-69
2023/10/29 05:52:22;;;;;;;;;;;;;;;10.51;100.00;99554.59;4192769;28;20012;-69
2023/10/29 05:54:25;;;;;;;;;;;;;;;10.52;100.00;99551.69;4191990;28;20020;-69
2023/10/29 05:56:27;;;;;;;;;;;;;;;10.52;100.00;99550.84;4191804;28;20015;-70
2023/10/29 05:58:30;;;;;;;;;;;;;;;10.55;100.00;99547.72;4191510;28;20018;-66
2023/10/29 06:00:32;;;;;;;;;;;;;;;10.56;100.00;99546.69;4191598;28;20016;-69
2023/10/29 06:02:34;;;;;;;;;;;;;;;10.58;100.00;99556.25;4190325;28;20646;-69
2023/10/29 06:04:35;;;;;;;;;;;;;;;10.57;100.00;99549.19;4193088;28;20031;-69
2023/10/29 06:06:37;;;;;;;;;;;;;;;10.58;100.00;99567.06;4193465;28;19936;-68
2023/10/29 06:08:39;;;;;;;;;;;;;;;10.60;100.00;99561.44;4193109;28;20018;-69
2023/10/29 06:10:43;;;;;;;;;;;;;;;10.59;100.00;99541.69;4193211;28;20011;-69
2023/10/29 06:12:45;;;;;;;;;;;;;;;10.61;100.00;99563.09;4192438;28;20015;-69
2023/10/29 06:14:47;;;;;;;;;;;;;;;10.60;100.00;99558.75;4192116;28;20020;-69
2023/10/29 06:16:51;;;;;;;;;;;;;;;10.60;100.00;99553.34;4191853;28;20042;-69
2023/10/29 06:18:53;;;;;;;;;;;;;;;10.61;100.00;99555.00;4193566;28;20031;-69
2023/10/29 06:20:55;;;;;;;;;;;;;;;10.62;100.00;99548.56;4192082;28;20019;-69
2023/10/29 06:22:57;;;;;;;;;;;;;;;10.62;100.00;99543.97;4192650;28;20455;-69
2023/10/29 06:24:59;;;;;;;;;;;;;;;10.63;100.00;99547.53;4193243;28;20023;-69
2023/10/29 06:27:02;;;;;;;;;;;;;;;10.63;100.00;99544.84;4193512;28;20891;-69
2023/10/29 06:29:06;;;;;;;;;;;;;;;10.63;100.00;99551.06;4193685;28;20023;-68
2023/10/29 06:31:09;;;;;;;;;;;;;;;10.64;100.00;99550.03;4191087;28;20364;-66
2023/10/29 06:33:11;;;;;;;;;;;;;;;10.66;100.00;99554.38;4191398;28;20415;-69
2023/10/29 06:35:13;;;;;;;;;;;;;;;10.64;100.00;99539.22;4193084;28;20047;-69
2023/10/29 06:37:15;;;;;;;;;;;;;;;10.66;100.00;99549.81;4193235;28;20028;-68
2023/10/29 06:39:17;;;;;;;;;;;;;;;10.67;100.00;99556.03;4192921;28;20354;-69
2023/10/29 06:41:19;;;;;;;;;;;;;;;10.67;100.00;99553.34;4191043;28;19959;-69
2023/10/29 06:43:23;;;;;;;;;;;;;;;10.68;100.00;99561.25;4192361;28;19925;-69
2023/10/29 06:45:25;;;;;;;;;;;;;;;10.69;100.00;99548.56;4193112;28;20364;-69
2023/10/29 06:47:27;;;;;;;;;;;;;;;10.69;100.00;99548.56;4192772;28;20019;-69
2023/10/29 06:49:29;;;;;;;;;;;;;;;10.71;100.00;99554.59;4192278;28;20055;-69
2023/10/29 06:51:31;;;;;;;;;;;;;;;10.72;100.00;99561.66;4193819;28;20055;-69
2023/10/29 06:53:33;;;;;;;;;;;;;;;10.71;100.00;99571.63;4192679;28;20021;-69
2023/10/29 06:55:36;;;;;;;;;;;;;;;10.71;100.00;99568.94;4192284;28;20019;-68
2023/10/29 06:57:38;;;;;;;;;;;;;;;10.72;100.00;99567.06;4193338;28;20015;-69
2023/10/29 06:59:43;;;;;;;;;;;;;;;10.72;100.00;99570.59;4193174;28;20022;-69
2023/10/29 07:01:46;;;;;;;;;;;;;;;10.73;100.00;99566.03;4189886;28;20028;-69
2023/10/29 07:03:48;;;;;;;;;;;;;;;10.75;100.00;99558.53;4192004;28;19932;-69
2023/10/29 07:05:50;;;;;;;;;;;;;;;10.73;100.00;99550.63;4193104;28;20023;-68
2023/10/29 07:07:51;;;;;;;;;;;;;;;10.74;100.00;99557.72;4192826;28;20015;-68
2023/10/29 07:09:53;;;;;;;;;;;;;;;10.76;100.00;99555.63;4192287;28;20011;-68
2023/10/29 07:11:55;;;;;;;;;;;;;;;10.75;100.00;99554.00;4192725;28;20024;-68
2023/10/29 07:13:57;;;;;;;;;;;;;;;10.75;100.00;99545.88;4194780;28;20419;-69
2023/10/29 07:16:00;;;;;;;;;;;;;;;10.75;100.00;99545.03;4196043;28;20023;-69
2023/10/29 07:18:03;;;;;;;;;;;;;;;10.75;100.00;99535.09;4196427;28;20375;-69
2023/10/29 07:20:06;;;;;;;;;;;;;;;10.75;100.00;99532.38;4195312;28;20026;-70
2023/10/29 07:22:08;;;;;;;;;;;;;;;10.76;100.00;99533.22;4195945;28;20023;-68
2023/10/29 07:24:09;;;;;;;;;;;;;;;10.75;100.00;99524.28;4196042;28;19924;-69
2023/10/29 07:26:12;;;;;;;;;;;;;;;10.76;100.00;99536.72;4196546;28;20027;-69
2023/10/29 07:28:14;;;;;;;;;;;;;;;10.77;100.00;99534.88;4195427;28;20382;-69
2023/10/29 07:30:16;;;;;;;;;;;;;;;10.77;100.00;99535.69;4193176;28;20625;-69
2023/10/29 07:32:20;;;;;;;;;;;;;;;10.78;100.00;99533.81;4193473;28;20080;-68
2023/10/29 07:34:21;;;;;;;;;;;;;;;10.78;100.00;99533.81;4194008;28;20023;-70
2023/10/29 07:36:23;;;;;;;;;;;;;;;10.78;100.00;99534.66;4188888;28;19967;-69
2023/10/29 07:38:26;;;;;;;;;;;;;;;10.79;100.00;99536.31;4194932;28;20011;-70
2023/10/29 07:40:28;;;;;;;;;;;;;;;10.80;100.00;99543.38;4195756;28;20661;-70
2023/10/29 07:42:30;;;;;;;;;;;;;;;10.80;100.00;99537.97;4196022;28;20478;-69
2023/10/29 07:44:32;;;;;;;;;;;;;;;10.80;100.00;99546.09;4194659;28;20844;-69
2023/10/29 07:46:34;;;;;;;;;;;;;;;10.81;100.00;99550.47;4194826;28;19924;-70
2023/10/29 07:48:38;;;;;;;;;;;;;;;10.82;100.00;99549.41;4195656;28;20126;-68
2023/10/29 07:50:39;;;;;;;;;;;;;;;10.84;100.00;99546.50;4193541;28;20018;-69
2023/10/29 07:52:41;;;;;;;;;;;;;;;10.86;100.00;99552.53;4194451;28;20030;-68
2023/10/29 07:54:43;;;;;;;;;;;;;;;10.86;100.00;99548.97;4194547;28;20011;-68
2023/10/29 07:56:46;;;;;;;;;;;;;;;10.87;100.00;99548.78;4195719;28;20059;-69
2023/10/29 07:58:48;;;;;;;;;;;;;;;10.88;100.00;99552.31;4195214;28;19960;-69
2023/10/29 08:00:50;;;;;;;;;;;;;;;10.88;100.00;99555.84;4193485;28;20023;-66
2023/10/29 08:02:52;;;;;;;;;;;;;;;10.89;100.00;99556.69;4194339;28;20099;-69
2023/10/29 08:04:56;;;;;;;;;;;;;;;10.88;100.00;99563.09;4194085;28;19925;-69
2023/10/29 08:06:59;;;;;;;;;;;;;;;10.89;100.00;99535.06;4194494;28;20007;-68
2023/10/29 08:09:01;;;;;;;;;;;;;;;10.88;100.00;99536.94;4191251;28;20674;-66
2023/10/29 08:11:04;;;;;;;;;;;;;;;10.88;100.00;99547.75;4195160;28;20428;-68
2023/10/29 08:13:05;;;;;;;;;;;;;;;10.89;100.00;99538.59;4194596;28;20039;-68
2023/10/29 08:15:08;;;;;;;;;;;;;;;10.89;100.00;99544.00;4193682;28;20015;-67
2023/10/29 08:17:12;;;;;;;;;;;;;;;10.89;100.00;99530.47;4193504;28;20012;-68
2023/10/29 08:19:15;;;;;;;;;;;;;;;10.89;100.00;99516.97;4193864;28;20470;-68
2023/10/29 08:21:18;;;;;;;;;;;;;;;10.89;100.00;99530.47;4192289;28;20359;-68
2023/10/29 08:23:20;;;;;;;;;;;;;;;10.90;100.00;99521.34;4193566;28;20015;-68
2023/10/29 08:25:22;;;;;;;;;;;;;;;10.91;100.00;99520.31;4191888;28;20373;-68
2023/10/29 08:27:24;;;;;;;;;;;;;;;10.91;100.00;99525.72;4193921;28;20023;-69
2023/10/29 08:29:26;;;;;;;;;;;;;;;10.92;100.00;99524.66;4193569;28;20008;-69
2023/10/29 08:31:28;;;;;;;;;;;;;;;10.93;100.00;99520.94;4191956;28;20019;-69
2023/10/29 08:33:29;;;;;;;;;;;;;;;10.93;100.00;99526.34;4194813;28;20027;-69
2023/10/29 08:35:31;;;;;;;;;;;;;;;10.93;100.00;99515.53;4191024;28;20110;-70
2023/10/29 08:37:35;;;;;;;;;;;;;;;10.94;100.00;99502.84;4194639;28;20060;-69
2023/10/29 08:39:37;;;;;;;;;;;;;;;10.94;100.00;99516.34;4194312;28;20017;-69
2023/10/29 08:41:39;;;;;;;;;;;;;;;10.94;100.00;99513.66;4194521;28;20024;-69
2023/10/29 08:43:41;;;;;;;;;;;;;;;10.94;100.00;99511.81;4194575;28;20023;-69
2023/10/29 08:45:43;;;;;;;;;;;;;;;10.95;100.00;99509.91;4194433;28;20339;-68
2023/10/29 08:47:45;;;;;;;;;;;;;;;10.95;100.00;99499.13;4193390;28;20027;-70
2023/10/29 08:49:46;;;;;;;;;;;;;;;10.95;100.00;99509.91;4193746;28;20012;-69
2023/10/29 08:51:48;;;;;;;;;;;;;;;10.95;100.00;99510.75;4194519;28;20509;-69
2023/10/29 08:53:51;;;;;;;;;;;;;;;10.95;100.00;99516.16;4194551;28;19924;-70
2023/10/29 08:55:53;;;;;;;;;;;;;;;10.95;100.00;99521.53;4193590;28;20019;-70
2023/10/29 08:57:54;;;;;;;;;;;;;;;10.96;100.00;99520.50;4194621;28;20011;-69
2023/10/29 08:59:56;;;;;;;;;;;;;;;10.98;100.00;99520.31;4188546;28;19925;-70
2023/10/29 09:01:58;;;;;;;;;;;;;;;10.99;100.00;99538.19;4193557;28;20022;-69
2023/10/29 09:04:00;;;;;;;;;;;;;;;10.99;99.54;99538.19;4193742;28;20461;-69
2023/10/29 09:06:03;;;;;;;;;;;;;;;10.99;99.55;99530.91;4193918;28;20383;-70
2023/10/29 09:08:05;;;;;;;;;;;;;;;11.03;99.14;99530.50;4194460;28;20032;-69
2023/10/29 09:10:10;;;;;;;;;;;;;;;11.02;99.28;99540.47;4194478;28;20011;-70
2023/10/29 09:12:12;;;;;;;;;;;;;;;11.04;98.81;99548.38;4193978;28;20468;-69
2023/10/29 09:14:14;;;;;;;;;;;;;;;11.05;98.44;99531.09;4193226;28;20016;-69
2023/10/29 09:16:16;;;;;;;;;;;;;;;11.05;98.18;99526.53;4194650;28;20547;-69
2023/10/29 09:18:18;;;;;;;;;;;;;;;11.06;97.96;99525.47;4192548;28;20020;-69
2023/10/29 09:20:20;;;;;;;;;;;;;;;11.08;97.78;99530.69;4192618;28;20039;-70
2023/10/29 09:22:22;;;;;;;;;;;;;;;11.09;97.45;99519.66;4193967;28;20019;-69
2023/10/29 09:24:24;;;;;;;;;;;;;;;11.09;96.86;99527.75;4187579;28;19959;-70
2023/10/29 09:26:28;;;;;;;;;;;;;;;11.11;96.79;99539.22;4183992;28;20490;-69
2023/10/29 09:28:30;;;;;;;;;;;;;;;11.12;96.21;99538.16;4192954;28;20015;-68
2023/10/29 09:30:32;;;;;;;;;;;;;;;11.12;96.12;99534.63;4193026;28;20012;-68
2023/10/29 09:32:35;;;;;;;;;;;;;;;11.14;96.02;99540.66;4193176;28;20031;-68
2023/10/29 09:34:37;;;;;;;;;;;;;;;11.16;95.75;99530.47;4192883;28;20023;-70
2023/10/29 09:36:38;;;;;;;;;;;;;;;11.17;95.44;99534.81;4193297;28;20023;-70
2023/10/29 09:38:40;;;;;;;;;;;;;;;11.17;95.12;99541.09;4193321;28;19925;-69
2023/10/29 09:40:42;;;;;;;;;;;;;;;11.19;95.18;99538.16;4193081;28;20017;-69
2023/10/29 09:42:49;;;;;;;;;;;;;;;11.21;94.92;99527.97;4192715;28;20020;-68
2023/10/29 09:44:51;;;;;;;;;;;;;;;11.23;94.76;99541.28;4193535;28;20016;-70
2023/10/29 09:46:54;;;;;;;;;;;;;;;11.22;94.59;99540.41;4193145;28;19928;-69
2023/10/29 09:48:56;;;;;;;;;;;;;;;11.24;94.42;99524.00;4193482;28;20043;-69
2023/10/29 09:50:58;;;;;;;;;;;;;;;11.24;94.52;99524.84;4192770;28;20024;-68
2023/10/29 09:53:01;;;;;;;;;;;;;;;11.26;94.68;99532.75;4193363;28;20375;-69
2023/10/29 09:55:04;;;;;;;;;;;;;;;11.27;94.37;99526.28;4193433;28;20023;-70
2023/10/29 09:57:06;;;;;;;;;;;;;;;11.28;94.21;99536.88;4194191;28;20011;-69
2023/10/29 09:59:10;;;;;;;;;;;;;;;11.29;94.13;99543.13;4192703;28;20019;-70
2023/10/29 10:01:11;;;;;;;;;;;;;;;11.29;94.09;99551.25;4189283;28;20023;-69
2023/10/29 10:03:13;;;;;;;;;;;;;;;11.29;93.88;99543.94;4193558;28;20422;-70
2023/10/29 10:05:15;;;;;;;;;;;;;;;11.29;93.74;99530.44;4193866;28;20008;-69
2023/10/29 10:07:17;;;;;;;;;;;;;;;11.32;93.83;99548.13;4192522;28;19924;-70
2023/10/29 10:09:21;;;;;;;;;;;;;;;11.33;93.58;99553.31;4193922;28;20022;-69
2023/10/29 10:11:23;;;;;;;;;;;;;;;11.33;93.58;99574.94;4193104;28;20007;-70
2023/10/29 10:13:41;;;;;;;;;;;;;;;11.33;93.30;99572.25;4193212;28;20011;-69
2023/10/29 10:15:44;;;;;;;;;;;;;;;11.34;93.23;99573.06;4191745;28;20028;-69
2023/10/29 10:17:48;;;;;;;;;;;;;;;11.34;93.06;99563.06;4193792;28;20011;-67
2023/10/29 10:19:51;;;;;;;;;;;;;;;11.35;93.36;99570.16;4192137;28;19968;-69
2023/10/29 10:21:53;;;;;;;;;;;;;;;11.36;93.24;99574.53;4192205;28;20358;-68
2023/10/29 10:23:55;;;;;;;;;;;;;;;11.36;93.02;99577.22;4193897;28;20027;-68
2023/10/29 10:25:58;;;;;;;;;;;;;;;11.37;93.06;99567.22;4193904;28;20012;-69
2023/10/29 10:28:01;;;;;;;;;;;;;;;11.36;93.15;99558.31;4199673;28;19950;-66
2023/10/29 10:30:04;;;;;;;;;;;;;;;11.39;93.01;99556.22;4191802;28;20019;-68
2023/10/29 10:32:08;;;;;;;;;;;;;;;11.40;92.85;99557.88;4192924;28;20015;-66
2023/10/29 10:34:10;;;;;;;;;;;;;;;11.42;92.77;99551.19;4192980;28;20583;-67